Time;durP1;ratioP1;P1;durP2;ratioP2;P2;SDS_P1;SDS_P2;PMS_P1;PMS_P2;Temp;Humidity;BMP_temperature;BMP_pressure;BME280_temperature;BME280_humidity;BME280_pressure;Samples;Min_cycle;Max_cycle;Signal;HPM_P1;HPM_P2
2022/03/14 00:00:58;;;;;;;3.63;1.83;;;9.80;99.90;;;;;;5040022;28;20185;-40
2022/03/14 00:03:25;;;;;;;1.93;1.47;;;9.80;99.90;;;;;;5036410;28;20612;-43
2022/03/14 00:05:51;;;;;;;1.83;1.47;;;9.80;99.90;;;;;;5036384;28;20320;-39
2022/03/14 00:08:18;;;;;;;1.50;1.40;;;9.70;99.90;;;;;;5036220;28;20302;-39
2022/03/14 00:10:45;;;;;;;1.97;1.53;;;9.70;99.90;;;;;;5035983;28;20184;-40
2022/03/14 00:13:18;;;;;;;1.97;1.80;;;9.70;99.90;;;;;;5018133;28;20190;-40
2022/03/14 00:15:44;;;;;;;1.77;1.67;;;9.70;99.90;;;;;;5036311;28;20536;-39
2022/03/14 00:18:10;;;;;;;2.00;1.80;;;9.60;99.90;;;;;;5036060;28;20213;-38
2022/03/14 00:20:36;;;;;;;1.97;1.60;;;9.60;99.90;;;;;;5035876;28;20172;-40
2022/03/14 00:23:02;;;;;;;1.80;1.70;;;9.60;99.90;;;;;;5036056;28;20239;-42
2022/03/14 00:25:30;;;;;;;1.80;1.70;;;9.50;99.90;;;;;;5035751;28;20183;-40
2022/03/14 00:27:55;;;;;;;2.03;1.80;;;9.50;99.90;;;;;;5035516;28;20221;-39
2022/03/14 00:30:22;;;;;;;2.20;1.83;;;9.50;99.90;;;;;;5035923;28;20584;-42
2022/03/14 00:32:47;;;;;;;1.73;1.63;;;9.50;99.90;;;;;;5017720;28;20192;-41
2022/03/14 00:35:13;;;;;;;2.10;1.90;;;9.40;99.90;;;;;;5035536;28;20259;-42
2022/03/14 00:37:39;;;;;;;1.97;1.70;;;9.40;99.90;;;;;;5035519;28;20662;-42
2022/03/14 00:40:07;;;;;;;2.67;1.97;;;9.40;99.90;;;;;;5035434;28;20186;-41
2022/03/14 00:42:35;;;;;;;2.00;1.57;;;9.30;99.90;;;;;;5035653;28;20226;-40
2022/03/14 00:45:00;;;;;;;5.87;2.07;;;9.40;99.90;;;;;;5036130;28;20192;-40
2022/03/14 00:47:28;;;;;;;2.20;1.90;;;9.40;99.90;;;;;;5035471;28;20511;-39
2022/03/14 00:49:53;;;;;;;2.93;2.10;;;9.30;99.90;;;;;;5035587;28;20272;-39
2022/03/14 00:52:19;;;;;;;2.10;1.90;;;9.30;99.90;;;;;;5017460;28;20262;-40
2022/03/14 00:54:45;;;;;;;2.27;1.97;;;9.30;99.90;;;;;;5035489;28;20190;-40
2022/03/14 00:57:11;;;;;;;4.43;2.10;;;9.20;99.90;;;;;;5035185;28;20548;-40
2022/03/14 00:59:39;;;;;;;2.20;2.00;;;9.30;99.90;;;;;;5035385;28;20277;-43
2022/03/14 01:02:05;;;;;;;2.87;2.40;;;9.20;99.90;;;;;;5034996;28;20559;-39
2022/03/14 01:04:31;;;;;;;2.83;2.40;;;9.20;99.90;;;;;;5035005;28;20183;-41
2022/03/14 01:06:56;;;;;;;2.20;2.00;;;9.20;99.90;;;;;;5034736;28;20684;-39
2022/03/14 01:09:22;;;;;;;4.97;2.37;;;9.20;99.90;;;;;;5035099;28;20180;-41
2022/03/14 01:11:48;;;;;;;3.97;2.43;;;9.20;99.90;;;;;;5016363;28;20193;-39
2022/03/14 01:14:14;;;;;;;3.67;2.37;;;9.20;99.90;;;;;;5035348;28;20192;-40
2022/03/14 01:16:40;;;;;;;3.03;2.30;;;9.20;99.90;;;;;;5016976;28;20273;-41
2022/03/14 01:19:11;;;;;;;2.70;2.43;;;9.20;99.90;;;;;;5034914;28;20295;-42
2022/03/14 01:21:38;;;;;;;3.30;2.40;;;9.10;99.90;;;;;;5034641;28;20634;-42
2022/03/14 01:24:05;;;;;;;2.30;2.10;;;9.20;99.90;;;;;;5034598;28;20185;-40
2022/03/14 01:26:30;;;;;;;2.70;2.50;;;9.10;99.90;;;;;;5034381;28;20223;-40
2022/03/14 01:28:57;;;;;;;2.67;2.37;;;9.20;99.90;;;;;;5034704;28;20195;-41
2022/03/14 01:31:22;;;;;;;4.07;2.57;;;9.10;99.90;;;;;;5034690;28;20559;-42
2022/03/14 01:33:48;;;;;;;2.73;2.50;;;9.20;99.90;;;;;;5034542;28;20277;-41
2022/03/14 01:36:13;;;;;;;3.17;2.57;;;9.20;99.90;;;;;;5034817;28;20210;-41
2022/03/14 01:38:39;;;;;;;3.80;2.60;;;9.20;99.90;;;;;;5034267;28;20202;-42
2022/03/14 01:41:04;;;;;;;3.00;2.67;;;9.20;99.90;;;;;;5034324;28;20168;-42
2022/03/14 01:43:30;;;;;;;3.57;2.90;;;9.20;99.90;;;;;;5034439;28;20213;-40
2022/03/14 01:45:57;;;;;;;2.63;2.43;;;9.20;99.90;;;;;;5034200;28;20178;-41
2022/03/14 01:48:23;;;;;;;4.27;2.87;;;9.20;99.90;;;;;;5034290;28;20218;-41
2022/03/14 01:50:49;;;;;;;3.50;2.80;;;9.20;99.90;;;;;;5034157;28;20185;-42
2022/03/14 01:53:16;;;;;;;2.87;2.33;;;9.20;99.90;;;;;;5034864;28;20171;-40
2022/03/14 01:55:42;;;;;;;3.23;2.67;;;9.20;99.90;;;;;;5034257;28;20235;-38
2022/03/14 01:58:07;;;;;;;3.67;2.70;;;9.20;99.90;;;;;;5034036;28;20209;-39
2022/03/14 02:00:33;;;;;;;3.80;3.17;;;9.20;99.90;;;;;;5034264;28;20630;-41
2022/03/14 02:02:58;;;;;;;2.63;2.43;;;9.20;99.90;;;;;;5033967;28;20191;-40
2022/03/14 02:05:24;;;;;;;4.50;2.83;;;9.20;99.90;;;;;;5016166;28;20186;-40
2022/03/14 02:07:50;;;;;;;3.60;2.80;;;9.20;99.90;;;;;;5034136;28;20221;-39
2022/03/14 02:10:16;;;;;;;3.63;2.77;;;9.10;99.90;;;;;;5033820;28;20669;-42
2022/03/14 02:12:43;;;;;;;3.83;2.90;;;9.10;99.90;;;;;;5034007;28;20190;-41
2022/03/14 02:15:10;;;;;;;3.57;2.40;;;9.10;99.90;;;;;;5034009;28;20189;-42
2022/03/14 02:17:36;;;;;;;3.03;2.70;;;9.10;99.90;;;;;;5033612;28;20284;-40
2022/03/14 02:20:02;;;;;;;3.90;2.93;;;9.10;99.90;;;;;;5033626;28;20271;-40
2022/03/14 02:22:28;;;;;;;3.87;2.20;;;9.10;99.90;;;;;;5033796;28;20183;-43
2022/03/14 02:24:53;;;;;;;2.40;2.10;;;9.10;99.90;;;;;;5015870;28;20324;-42
2022/03/14 02:27:19;;;;;;;1.67;1.57;;;9.10;99.90;;;;;;5033471;28;20216;-40
2022/03/14 02:29:45;;;;;;;3.57;1.80;;;9.10;99.90;;;;;;5033831;28;20212;-42
2022/03/14 02:32:12;;;;;;;2.03;1.63;;;9.10;99.90;;;;;;5033483;28;20194;-40
2022/03/14 02:34:38;;;;;;;2.03;1.77;;;9.10;99.90;;;;;;5033506;28;20229;-41
2022/03/14 02:37:04;;;;;;;1.93;1.33;;;9.10;99.90;;;;;;5033706;28;20557;-40
2022/03/14 02:39:34;;;;;;;1.57;1.47;;;9.10;99.90;;;;;;5033337;28;20580;-41
2022/03/14 02:42:01;;;;;;;1.87;1.53;;;9.10;99.90;;;;;;5033619;28;20199;-41
2022/03/14 02:44:27;;;;;;;1.77;1.67;;;9.10;99.90;;;;;;5033575;28;20257;-42
2022/03/14 02:46:53;;;;;;;1.90;1.57;;;9.10;99.90;;;;;;5033456;28;20209;-40
2022/03/14 02:49:18;;;;;;;3.10;1.33;;;9.10;99.90;;;;;;5033406;28;20185;-43
2022/03/14 02:51:46;;;;;;;2.17;1.60;;;9.10;99.90;;;;;;5033560;28;20182;-41
2022/03/14 02:54:12;;;;;;;1.70;1.43;;;9.00;99.90;;;;;;5033583;28;20187;-44
2022/03/14 02:56:39;;;;;;;3.20;2.13;;;9.00;99.90;;;;;;5033398;28;20178;-42
2022/03/14 02:59:06;;;;;;;1.70;1.50;;;9.00;99.90;;;;;;5033205;28;20202;-43
2022/03/14 03:01:35;;;;;;;2.80;1.60;;;9.00;99.90;;;;;;5033299;28;20215;-43
2022/03/14 03:04:01;;;;;;;2.00;1.53;;;8.90;99.90;;;;;;5033509;28;20193;-43
2022/03/14 03:06:27;;;;;;;2.33;1.50;;;9.00;99.90;;;;;;5033101;28;20196;-45
2022/03/14 03:08:54;;;;;;;2.23;1.80;;;9.00;99.90;;;;;;5015459;28;20202;-44
2022/03/14 03:11:20;;;;;;;2.27;1.40;;;8.90;99.90;;;;;;5033553;28;20260;-44
2022/03/14 03:13:47;;;;;;;2.47;2.00;;;9.00;99.90;;;;;;5034574;28;20514;-45
2022/03/14 03:16:16;;;;;;;2.73;2.10;;;9.00;99.90;;;;;;5018973;28;20680;-44
2022/03/14 03:18:45;;;;;;;2.20;1.80;;;9.00;99.90;;;;;;5040096;28;20272;-44
2022/03/14 03:21:11;;;;;;;2.00;1.63;;;8.90;99.90;;;;;;5036793;28;20256;-45
2022/03/14 03:23:37;;;;;;;3.43;1.70;;;8.90;99.90;;;;;;5033277;28;20579;-46
2022/03/14 03:26:04;;;;;;;2.37;1.80;;;8.90;99.90;;;;;;5032953;28;20200;-44
2022/03/14 03:28:35;;;;;;;3.00;1.93;;;8.90;99.90;;;;;;5033358;28;20292;-43
2022/03/14 03:31:09;;;;;;;1.83;1.60;;;8.90;99.90;;;;;;5032936;28;20248;-45
2022/03/14 03:33:36;;;;;;;2.67;1.70;;;8.90;99.90;;;;;;5032838;28;20189;-44
2022/03/14 03:36:02;;;;;;;2.50;1.87;;;8.90;99.90;;;;;;5036651;28;20240;-46
2022/03/14 03:38:28;;;;;;;1.93;1.63;;;8.80;99.90;;;;;;5036491;28;20739;-43
2022/03/14 03:40:54;;;;;;;1.93;1.63;;;8.90;99.90;;;;;;5036499;28;20194;-46
2022/03/14 03:43:20;;;;;;;1.97;1.70;;;8.90;99.90;;;;;;5036444;28;20177;-45
2022/03/14 03:45:46;;;;;;;1.83;1.47;;;8.80;99.90;;;;;;5036418;28;20185;-45
2022/03/14 03:48:11;;;;;;;2.53;1.60;;;8.90;99.90;;;;;;5036237;28;20288;-45
2022/03/14 03:50:37;;;;;;;1.87;1.77;;;8.90;99.90;;;;;;5036330;28;20204;-46
2022/03/14 03:53:03;;;;;;;1.50;1.40;;;8.90;99.90;;;;;;5036505;28;20235;-44
2022/03/14 03:55:28;;;;;;;3.00;1.97;;;8.90;99.90;;;;;;5036184;28;20705;-47
2022/03/14 03:57:54;;;;;;;2.30;2.10;;;8.90;99.90;;;;;;5018366;28;20228;-45
2022/03/14 04:00:20;;;;;;;2.20;1.57;;;8.90;99.90;;;;;;5036216;28;20185;-43
2022/03/14 04:02:46;;;;;;;3.13;1.80;;;8.90;99.90;;;;;;5036686;28;20188;-44
2022/03/14 04:05:14;;;;;;;1.47;1.30;;;8.90;99.90;;;;;;5018330;28;20181;-45
2022/03/14 04:07:40;;;;;;;2.87;2.00;;;8.90;99.90;;;;;;5035957;28;20205;-44
2022/03/14 04:10:06;;;;;;;2.13;1.93;;;8.90;99.90;;;;;;5018280;28;20540;-45
2022/03/14 04:12:32;;;;;;;1.80;1.70;;;8.90;99.90;;;;;;5036290;28;20178;-45
2022/03/14 04:15:06;;;;;;;2.43;1.80;;;8.90;99.90;;;;;;5018313;28;20190;-44
2022/03/14 04:17:32;;;;;;;2.07;1.83;;;8.90;99.90;;;;;;5036641;28;20198;-44
2022/03/14 04:20:00;;;;;;;2.57;1.93;;;8.90;99.90;;;;;;5018148;28;20181;-46
2022/03/14 04:22:25;;;;;;;3.47;2.07;;;8.80;99.90;;;;;;5035797;28;20712;-43
2022/03/14 04:24:51;;;;;;;2.87;1.70;;;8.80;99.90;;;;;;5035718;28;20256;-45
2022/03/14 04:27:17;;;;;;;2.10;1.80;;;8.90;99.90;;;;;;5035445;28;20210;-44
2022/03/14 04:29:42;;;;;;;2.17;1.97;;;8.90;99.90;;;;;;5035596;28;20660;-44
2022/03/14 04:32:08;;;;;;;2.93;1.90;;;8.90;99.90;;;;;;5035701;28;20223;-45
2022/03/14 04:34:34;;;;;;;2.13;1.90;;;8.80;99.90;;;;;;5035846;28;20215;-46
2022/03/14 04:36:59;;;;;;;2.07;1.73;;;8.80;99.90;;;;;;5035457;28;20239;-46
2022/03/14 04:39:25;;;;;;;2.00;1.80;;;8.80;99.90;;;;;;5035741;28;20181;-44
2022/03/14 04:41:51;;;;;;;2.57;2.03;;;8.80;99.90;;;;;;5035668;28;20212;-45
2022/03/14 04:44:17;;;;;;;2.00;1.80;;;8.80;99.90;;;;;;5035371;28;20524;-46
2022/03/14 04:46:42;;;;;;;2.40;1.73;;;8.80;99.90;;;;;;5016470;28;20216;-43
2022/03/14 04:49:08;;;;;;;3.20;1.90;;;8.70;99.90;;;;;;5035772;28;20177;-44
2022/03/14 04:51:34;;;;;;;4.00;1.83;;;8.70;99.90;;;;;;5017814;28;20673;-44
2022/03/14 04:54:00;;;;;;;2.43;2.10;;;8.70;99.90;;;;;;5036326;28;20182;-45
2022/03/14 04:56:25;;;;;;;2.33;1.70;;;9.80;99.90;;;;;;5035265;28;20181;-45
2022/03/14 04:58:52;;;;;;;2.43;2.20;;;8.70;99.90;;;;;;5035212;28;20293;-45
2022/03/14 05:01:20;;;;;;;2.23;1.90;;;8.60;99.90;;;;;;5034982;28;20564;-46
2022/03/14 05:03:45;;;;;;;2.20;2.00;;;8.60;99.90;;;;;;5035096;28;20173;-43
2022/03/14 05:06:13;;;;;;;1.87;1.73;;;8.60;99.90;;;;;;5034686;28;20224;-47
2022/03/14 05:08:38;;;;;;;2.20;1.97;;;8.60;99.90;;;;;;5034763;28;20236;-45
2022/03/14 05:11:04;;;;;;;2.33;1.93;;;8.60;99.90;;;;;;5035047;28;20642;-47
2022/03/14 05:13:30;;;;;;;3.03;2.03;;;8.60;99.90;;;;;;5034698;28;20184;-45
2022/03/14 05:15:56;;;;;;;2.47;1.97;;;8.60;99.90;;;;;;5035005;28;20205;-44
2022/03/14 05:18:21;;;;;;;3.27;1.77;;;8.60;99.90;;;;;;5034601;28;20238;-45
2022/03/14 05:20:47;;;;;;;2.33;1.90;;;8.60;99.90;;;;;;5034580;28;20250;-46
2022/03/14 05:23:13;;;;;;;6.40;2.03;;;8.60;99.90;;;;;;5034838;28;20189;-44
2022/03/14 05:25:38;;;;;;;3.50;1.80;;;8.60;99.90;;;;;;5016730;28;20526;-46
2022/03/14 05:28:04;;;;;;;3.00;1.60;;;8.60;99.90;;;;;;5034441;28;20217;-44
2022/03/14 05:30:30;;;;;;;3.70;1.97;;;8.60;99.90;;;;;;5034712;28;20215;-46
2022/03/14 05:32:56;;;;;;;4.00;2.13;;;8.60;99.90;;;;;;5034332;28;20221;-45
2022/03/14 05:35:21;;;;;;;3.50;2.17;;;8.60;99.90;;;;;;5034367;28;20182;-45
2022/03/14 05:37:47;;;;;;;5.67;2.13;;;8.60;99.90;;;;;;5000254;28;20217;-44
2022/03/14 05:40:15;;;;;;;2.83;2.27;;;8.60;99.90;;;;;;5034503;28;20665;-44
2022/03/14 05:42:42;;;;;;;5.03;2.47;;;8.50;99.90;;;;;;5034905;28;20515;-45
2022/03/14 05:45:08;;;;;;;2.87;2.10;;;8.60;99.90;;;;;;5034580;28;20660;-46
2022/03/14 05:47:39;;;;;;;4.07;2.30;;;8.60;99.90;;;;;;5034216;28;20217;-45
2022/03/14 05:50:06;;;;;;;4.03;1.97;;;8.50;99.90;;;;;;5034193;28;20193;-44
2022/03/14 05:52:31;;;;;;;3.37;2.20;;;8.50;99.90;;;;;;5016319;28;20189;-44
2022/03/14 05:54:57;;;;;;;5.13;2.57;;;8.60;99.90;;;;;;5034390;28;20699;-46
2022/03/14 05:57:22;;;;;;;5.73;2.20;;;8.50;99.90;;;;;;5033658;28;20201;-45
2022/03/14 05:59:48;;;;;;;4.00;2.53;;;8.50;99.90;;;;;;4999869;28;20257;-43
2022/03/14 06:02:24;;;;;;;6.57;2.50;;;8.60;99.90;;;;;;5034037;28;20196;-46
2022/03/14 06:04:51;;;;;;;4.87;2.57;;;8.60;99.90;;;;;;5016232;28;20189;-45
2022/03/14 06:07:19;;;;;;;5.80;2.60;;;8.50;99.90;;;;;;5034229;28;20213;-43
2022/03/14 06:09:46;;;;;;;4.30;2.53;;;8.60;99.90;;;;;;5034097;28;20209;-44
2022/03/14 06:12:12;;;;;;;5.57;2.23;;;8.60;99.90;;;;;;5033795;28;20226;-46
2022/03/14 06:14:38;;;;;;;4.00;2.10;;;8.60;99.90;;;;;;5016245;28;20589;-46
2022/03/14 06:17:04;;;;;;;4.07;2.50;;;8.60;99.90;;;;;;5033844;28;20209;-44
2022/03/14 06:19:29;;;;;;;6.07;3.27;;;8.60;99.90;;;;;;5033907;28;20272;-45
2022/03/14 06:21:55;;;;;;;6.70;2.90;;;8.60;99.90;;;;;;5033645;28;20527;-46
2022/03/14 06:24:21;;;;;;;4.13;2.33;;;8.50;99.90;;;;;;5033899;28;20181;-44
2022/03/14 06:26:46;;;;;;;10.27;2.80;;;8.50;99.90;;;;;;5033351;28;20212;-44
2022/03/14 06:29:13;;;;;;;7.57;2.30;;;8.60;99.90;;;;;;5034407;28;20241;-45
2022/03/14 06:31:38;;;;;;;5.83;2.50;;;8.50;99.90;;;;;;5039053;28;20173;-45
2022/03/14 06:34:04;;;;;;;6.80;2.80;;;8.50;99.90;;;;;;5037594;28;20207;-44
2022/03/14 06:36:30;;;;;;;8.90;2.73;;;8.50;99.90;;;;;;5034258;28;20188;-45
2022/03/14 06:38:59;;;;;;;5.03;2.37;;;8.50;99.90;;;;;;5033398;28;20272;-43
2022/03/14 06:41:26;;;;;;;3.77;2.47;;;8.50;99.90;;;;;;5033744;28;20180;-45
2022/03/14 06:43:53;;;;;;;5.47;2.67;;;8.60;99.90;;;;;;5033637;28;20212;-44
2022/03/14 06:46:19;;;;;;;6.00;2.50;;;8.50;99.90;;;;;;5034027;28;20521;-45
2022/03/14 06:48:46;;;;;;;7.40;2.70;;;8.50;99.90;;;;;;5033281;28;20193;-44
2022/03/14 06:51:13;;;;;;;7.77;2.33;;;8.60;99.90;;;;;;5015645;28;20177;-45
2022/03/14 06:53:39;;;;;;;6.23;2.60;;;8.60;99.90;;;;;;5015910;28;20196;-44
2022/03/14 06:56:06;;;;;;;6.00;3.00;;;8.60;99.90;;;;;;5015731;28;20200;-44
2022/03/14 06:58:34;;;;;;;9.63;2.63;;;8.60;99.90;;;;;;5033175;28;20196;-43
2022/03/14 07:01:00;;;;;;;9.50;2.50;;;8.60;99.90;;;;;;5033606;28;20665;-45
2022/03/14 07:03:27;;;;;;;6.40;2.60;;;8.60;99.90;;;;;;5016079;28;20177;-44
2022/03/14 07:05:53;;;;;;;7.47;2.70;;;8.60;99.90;;;;;;5033106;28;20680;-45
2022/03/14 07:08:20;;;;;;;11.03;2.60;;;8.60;99.90;;;;;;5033268;28;20577;-45
2022/03/14 07:10:45;;;;;;;6.43;2.60;;;8.60;99.90;;;;;;5018737;28;20593;-46
2022/03/14 07:13:11;;;;;;;7.83;2.80;;;8.60;99.90;;;;;;5002999;28;20319;-45
2022/03/14 07:15:36;;;;;;;5.57;2.40;;;8.60;99.90;;;;;;5037220;28;20180;-45
2022/03/14 07:18:02;;;;;;;9.00;2.57;;;8.60;99.90;;;;;;5019254;28;20197;-44
2022/03/14 07:20:28;;;;;;;8.33;2.80;;;8.60;99.90;;;;;;5037643;28;20181;-45
2022/03/14 07:22:58;;;;;;;7.97;3.00;;;8.60;99.90;;;;;;5037261;28;20181;-45
2022/03/14 07:25:29;;;;;;;7.30;2.70;;;8.60;99.90;;;;;;5037108;28;20275;-43
2022/03/14 07:27:57;;;;;;;5.63;2.67;;;8.60;99.90;;;;;;5037063;28;20214;-43
2022/03/14 07:30:25;;;;;;;8.70;2.90;;;8.70;99.90;;;;;;5037037;28;20208;-45
2022/03/14 07:32:51;;;;;;;7.40;2.63;;;8.70;99.90;;;;;;5002553;28;20735;-43
2022/03/14 07:35:18;;;;;;;7.50;2.80;;;8.70;99.90;;;;;;5036683;28;20533;-45
2022/03/14 07:37:44;;;;;;;7.10;2.87;;;8.70;99.90;;;;;;5019408;28;20211;-42
2022/03/14 07:40:12;;;;;;;5.90;2.97;;;8.70;99.90;;;;;;5036624;28;20660;-45
2022/03/14 07:42:46;;;;;;;5.40;2.37;;;8.80;99.90;;;;;;5018946;28;20188;-46
2022/03/14 07:45:14;;;;;;;6.90;2.73;;;8.80;99.90;;;;;;5036876;28;20588;-44
2022/03/14 07:47:40;;;;;;;6.17;2.70;;;8.80;99.90;;;;;;5036625;28;20213;-44
2022/03/14 07:50:07;;;;;;;5.23;2.77;;;8.90;99.90;;;;;;5036467;28;20177;-46
2022/03/14 07:52:34;;;;;;;7.27;2.50;;;8.90;99.90;;;;;;5018656;28;20188;-44
2022/03/14 07:55:00;;;;;;;6.67;2.67;;;8.90;99.90;;;;;;5036556;28;20224;-46
2022/03/14 07:57:26;;;;;;;3.83;2.20;;;9.00;99.90;;;;;;5036203;28;20219;-44
2022/03/14 07:59:52;;;;;;;5.90;2.50;;;9.00;99.90;;;;;;5036314;28;20180;-45
2022/03/14 08:02:18;;;;;;;6.47;2.67;;;9.10;99.90;;;;;;5018516;28;20184;-44
2022/03/14 08:04:43;;;;;;;4.30;2.20;;;9.10;99.90;;;;;;5036324;28;20181;-45
2022/03/14 08:07:09;;;;;;;8.00;2.50;;;9.10;99.90;;;;;;5018305;28;20204;-45
2022/03/14 08:09:35;;;;;;;2.57;1.67;;;9.20;99.90;;;;;;5036267;28;20221;-46
2022/03/14 08:12:03;;;;;;;10.67;2.90;;;9.30;99.90;;;;;;5036051;28;20169;-47
2022/03/14 08:14:29;;;;;;;7.17;2.70;;;9.40;99.90;;;;;;5018297;28;20184;-46
2022/03/14 08:16:54;;;;;;;4.00;2.23;;;9.50;99.90;;;;;;5018306;28;20197;-45
2022/03/14 08:19:20;;;;;;;5.47;2.33;;;9.50;99.90;;;;;;5036220;28;20189;-46
2022/03/14 08:21:47;;;;;;;5.93;2.70;;;9.50;99.90;;;;;;5035764;28;20178;-46
2022/03/14 08:24:15;;;;;;;9.10;2.30;;;9.60;99.90;;;;;;5036209;28;20259;-44
2022/03/14 08:26:43;;;;;;;5.17;2.70;;;9.60;99.90;;;;;;5018325;28;20209;-44
2022/03/14 08:29:10;;;;;;;3.80;2.20;;;9.60;99.90;;;;;;5035651;28;20683;-46
2022/03/14 08:31:37;;;;;;;5.80;2.33;;;9.70;99.90;;;;;;5035737;28;20543;-45
2022/03/14 08:34:03;;;;;;;4.73;2.73;;;9.70;99.90;;;;;;5035576;28;20189;-45
2022/03/14 08:36:28;;;;;;;7.73;2.83;;;9.80;99.90;;;;;;5035601;28;20177;-46
2022/03/14 08:38:55;;;;;;;6.27;2.73;;;9.90;99.90;;;;;;5017828;28;20665;-46
2022/03/14 08:41:22;;;;;;;6.47;2.63;;;9.90;99.90;;;;;;5035508;28;20165;-47
2022/03/14 08:43:47;;;;;;;5.30;2.43;;;9.90;99.90;;;;;;5035529;28;20231;-44
2022/03/14 08:46:16;;;;;;;6.33;2.57;;;10.00;99.90;;;;;;5035473;28;20182;-45
2022/03/14 08:48:42;;;;;;;7.53;2.90;;;10.10;99.90;;;;;;5017435;28;20289;-44
2022/03/14 08:51:08;;;;;;;6.00;3.00;;;10.10;99.90;;;;;;5035401;28;20183;-46
2022/03/14 08:53:34;;;;;;;7.60;2.87;;;10.20;99.90;;;;;;5001245;28;20210;-45
2022/03/14 08:56:03;;;;;;;5.73;2.77;;;10.30;99.90;;;;;;5017460;28;20231;-45
2022/03/14 08:58:29;;;;;;;5.77;3.33;;;10.30;99.90;;;;;;5034998;28;20284;-47
2022/03/14 09:00:57;;;;;;;5.67;3.03;;;10.30;99.90;;;;;;5035137;28;20261;-44
2022/03/14 09:03:22;;;;;;;7.10;3.07;;;10.40;99.90;;;;;;5017385;28;20650;-46
2022/03/14 09:05:48;;;;;;;6.40;3.10;;;10.40;99.90;;;;;;5034970;28;20237;-46
2022/03/14 09:08:13;;;;;;;5.87;2.93;;;10.40;99.90;;;;;;5034731;28;20221;-44
2022/03/14 09:10:41;;;;;;;6.40;3.50;;;10.50;99.90;;;;;;5035218;28;20226;-46
2022/03/14 09:13:07;;;;;;;6.07;3.37;;;10.60;99.90;;;;;;5035300;28;20663;-44
2022/03/14 09:15:33;;;;;;;9.30;3.80;;;10.80;99.90;;;;;;5035097;28;20186;-45
2022/03/14 09:18:00;;;;;;;12.90;3.37;;;10.90;99.90;;;;;;5034911;28;20203;-45
2022/03/14 09:20:28;;;;;;;5.20;3.20;;;10.80;99.90;;;;;;5016933;28;20188;-43
2022/03/14 09:22:54;;;;;;;6.27;3.27;;;11.10;99.90;;;;;;5034891;28;20260;-47
2022/03/14 09:25:21;;;;;;;9.07;3.30;;;11.00;99.90;;;;;;5000831;28;20230;-45
2022/03/14 09:27:48;;;;;;;5.03;3.63;;;11.00;99.90;;;;;;5016739;28;20573;-46
2022/03/14 09:30:15;;;;;;;3.77;2.80;;;11.10;99.90;;;;;;5034648;28;20207;-46
2022/03/14 09:32:41;;;;;;;5.43;2.73;;;11.10;99.90;;;;;;5033775;28;20647;-45
2022/03/14 09:35:11;;;;;;;9.97;3.47;;;11.10;99.90;;;;;;5034723;28;20175;-48
2022/03/14 09:37:38;;;;;;;7.30;3.63;;;11.20;99.90;;;;;;5000819;28;20666;-45
2022/03/14 09:40:06;;;;;;;9.87;3.70;;;11.20;99.90;;;;;;5016555;28;20338;-45
2022/03/14 09:42:36;;;;;;;8.60;3.97;;;11.30;99.90;;;;;;5016586;28;20195;-44
2022/03/14 09:45:04;;;;;;;8.63;4.47;;;11.40;99.90;;;;;;5016548;28;20194;-45
2022/03/14 09:47:30;;;;;;;8.50;3.93;;;11.50;99.90;;;;;;5034158;28;20212;-46
2022/03/14 09:49:58;;;;;;;7.50;4.00;;;11.70;99.90;;;;;;5034496;28;20191;-46
2022/03/14 09:52:25;;;;;;;6.90;3.93;;;11.90;99.90;;;;;;5038649;28;20223;-46
2022/03/14 09:54:51;;;;;;;6.07;3.90;;;12.10;99.90;;;;;;5038572;28;20184;-46
2022/03/14 09:57:18;;;;;;;6.20;3.03;;;12.50;99.90;;;;;;5035196;28;20205;-45
2022/03/14 09:59:44;;;;;;;10.13;3.80;;;12.70;99.90;;;;;;5034217;28;20188;-44
2022/03/14 10:02:12;;;;;;;5.77;3.50;;;12.80;99.90;;;;;;5016360;28;20630;-45
2022/03/14 10:04:38;;;;;;;5.43;3.00;;;12.90;99.90;;;;;;5034248;28;20180;-43
2022/03/14 10:07:06;;;;;;;5.07;3.20;;;13.00;99.90;;;;;;5034069;28;20308;-46
2022/03/14 10:09:34;;;;;;;5.67;3.30;;;13.20;99.90;;;;;;5034058;28;20311;-46
2022/03/14 10:12:01;;;;;;;6.73;2.67;;;13.10;99.90;;;;;;5016591;28;20200;-45
2022/03/14 10:14:27;;;;;;;3.57;2.80;;;13.10;99.90;;;;;;5016690;28;20535;-45
2022/03/14 10:16:55;;;;;;;7.80;2.53;;;13.10;99.90;;;;;;5016045;28;20196;-45
2022/03/14 10:19:28;;;;;;;6.30;2.60;;;13.10;99.90;;;;;;5033620;28;20653;-45
2022/03/14 10:21:54;;;;;;;4.23;2.90;;;13.00;99.90;;;;;;5015861;28;20180;-45
2022/03/14 10:24:23;;;;;;;4.30;2.63;;;12.90;99.90;;;;;;5033507;28;20177;-46
2022/03/14 10:26:49;;;;;;;6.93;2.33;;;12.80;99.90;;;;;;5033433;28;20196;-47
2022/03/14 10:29:15;;;;;;;3.53;2.40;;;12.80;99.90;;;;;;5033584;28;20179;-46
2022/03/14 10:31:45;;;;;;;5.90;2.00;;;12.80;99.90;;;;;;5033537;28;20243;-47
2022/03/14 10:34:18;;;;;;;4.37;2.00;;;12.70;99.90;;;;;;5033498;28;20238;-47
2022/03/14 10:36:49;;;;;;;4.23;2.07;;;12.70;99.90;;;;;;5016539;28;20227;-40
2022/03/14 10:39:18;;;;;;;3.43;1.97;;;12.70;99.90;;;;;;5033722;28;20181;-43
2022/03/14 10:42:04;;;;;;;4.23;1.63;;;12.70;99.90;;;;;;5033345;28;20609;-41
2022/03/14 10:44:30;;;;;;;3.23;1.80;;;12.60;99.90;;;;;;5032367;28;20264;-39
2022/03/14 10:47:01;;;;;;;3.93;2.07;;;12.60;99.90;;;;;;5015753;28;20215;-43
2022/03/14 10:49:28;;;;;;;2.53;1.70;;;12.60;99.90;;;;;;5033408;28;20172;-41
2022/03/14 10:51:59;;;;;;;4.80;1.93;;;12.60;99.90;;;;;;5033484;28;20188;-40
2022/03/14 10:54:25;;;;;;;2.47;1.67;;;12.60;99.90;;;;;;5015493;28;20248;-43
2022/03/14 10:57:04;;;;;;;3.83;1.80;;;12.60;99.90;;;;;;5033317;28;20173;-41
2022/03/14 10:59:34;;;;;;;3.30;1.70;;;12.60;99.90;;;;;;5033602;28;20184;-41
2022/03/14 11:02:01;;;;;;;3.97;1.77;;;12.50;99.90;;;;;;5015418;28;20181;-42
2022/03/14 11:04:27;;;;;;;2.73;1.57;;;12.50;99.90;;;;;;5033211;28;20235;-41
2022/03/14 11:06:59;;;;;;;2.20;1.53;;;12.50;99.90;;;;;;5032995;28;20201;-40
2022/03/14 11:09:48;;;;;;;4.50;1.40;;;12.40;99.90;;;;;;5033688;28;20165;-42
2022/03/14 11:12:17;;;;;;;2.87;1.80;;;12.40;99.90;;;;;;5033485;28;20252;-42
2022/03/14 11:14:54;;;;;;;6.07;1.53;;;12.40;99.90;;;;;;5033251;28;20179;-39
2022/03/14 11:17:26;;;;;;;4.03;1.57;;;12.40;99.90;;;;;;5033079;28;20276;-41
2022/03/14 11:19:53;;;;;;;4.63;1.67;;;12.50;99.90;;;;;;5033345;28;20167;-40
2022/03/14 11:22:20;;;;;;;9.07;1.40;;;12.60;99.90;;;;;;5015473;28;20293;-39
2022/03/14 11:24:51;;;;;;;3.30;2.07;;;12.60;99.90;;;;;;5033254;28;20269;-42
2022/03/14 11:27:28;;;;;;;4.37;2.03;;;12.70;99.90;;;;;;5033259;28;20222;-41
2022/03/14 11:30:05;;;;;;;2.97;2.10;;;12.70;99.90;;;;;;5033318;28;20630;-40
2022/03/14 11:32:31;;;;;;;5.03;2.10;;;12.70;99.90;;;;;;5032952;28;20182;-41
2022/03/14 11:34:57;;;;;;;4.53;2.20;;;12.70;99.90;;;;;;5033342;28;20176;-41
2022/03/14 11:37:28;;;;;;;4.20;2.37;;;12.70;99.90;;;;;;5033019;28;20555;-41
2022/03/14 11:39:57;;;;;;;5.33;2.73;;;12.70;99.90;;;;;;5015453;28;20188;-40
2022/03/14 11:42:23;;;;;;;4.77;2.23;;;12.80;99.90;;;;;;5032911;28;20187;-42
2022/03/14 11:44:50;;;;;;;3.30;2.17;;;12.80;99.90;;;;;;5033231;28;20173;-43
2022/03/14 11:47:20;;;;;;;3.50;2.13;;;12.80;99.90;;;;;;5032959;28;20716;-40
2022/03/14 11:49:47;;;;;;;5.10;2.20;;;12.80;99.90;;;;;;5033180;28;20186;-40
2022/03/14 11:52:24;;;;;;;2.27;1.80;;;12.80;99.90;;;;;;5032955;28;20177;-39
2022/03/14 11:54:52;;;;;;;6.50;2.03;;;12.80;99.90;;;;;;5015393;28;20157;-41
2022/03/14 11:57:41;;;;;;;10.73;2.10;;;12.80;99.90;;;;;;5036436;28;20192;-42
2022/03/14 12:00:21;;;;;;;5.33;2.40;;;12.90;99.90;;;;;;5036515;28;20511;-41
2022/03/14 12:02:48;;;;;;;4.43;1.87;;;12.90;99.90;;;;;;5036195;28;20653;-42
2022/03/14 12:05:20;;;;;;;5.57;2.13;;;13.00;99.90;;;;;;5036367;28;20265;-40
2022/03/14 12:07:45;;;;;;;3.30;2.17;;;13.00;99.90;;;;;;5036200;28;20689;-40
2022/03/14 12:10:28;;;;;;;3.77;2.30;;;13.10;99.90;;;;;;5036356;28;20179;-40
2022/03/14 12:12:54;;;;;;;4.40;2.67;;;13.10;99.90;;;;;;5036055;28;20166;-39
2022/03/14 12:15:42;;;;;;;3.37;1.97;;;13.10;99.90;;;;;;5035959;28;20299;-42
2022/03/14 12:18:23;;;;;;;5.40;2.30;;;13.20;99.90;;;;;;5036089;28;20208;-42
2022/03/14 12:20:49;;;;;;;2.73;2.03;;;13.20;99.90;;;;;;5018112;28;20184;-41
2022/03/14 12:23:34;;;;;;;5.53;2.20;;;13.30;99.90;;;;;;5036324;28;20191;-43
2022/03/14 12:26:21;;;;;;;6.60;2.47;;;13.30;99.90;;;;;;5035946;28;20195;-41
2022/03/14 12:28:47;;;;;;;4.90;2.50;;;13.30;99.90;;;;;;5017912;28;20211;-41
2022/03/14 12:31:14;;;;;;;6.77;2.73;;;13.40;99.90;;;;;;5036115;28;20177;-41
2022/03/14 12:33:50;;;;;;;7.07;2.40;;;13.40;99.90;;;;;;5035599;28;20531;-42
2022/03/14 12:36:22;;;;;;;4.63;2.43;;;13.50;99.90;;;;;;5035627;28;20700;-42
2022/03/14 12:39:21;;;;;;;4.73;2.83;;;13.50;99.90;;;;;;5036228;28;20227;-39
2022/03/14 12:41:47;;;;;;;4.37;3.03;;;13.50;99.90;;;;;;5018154;28;20675;-40
2022/03/14 12:44:20;;;;;;;6.07;2.93;;;13.40;99.90;;;;;;5035493;28;20231;-41
2022/03/14 12:46:48;;;;;;;3.57;2.80;;;13.40;99.90;;;;;;5035243;28;20231;-42
2022/03/14 12:49:38;;;;;;;4.87;3.37;;;13.40;99.90;;;;;;5035312;28;20257;-41
2022/03/14 12:52:13;;;;;;;7.73;3.13;;;13.40;99.90;;;;;;5035306;28;20255;-41
2022/03/14 12:54:39;;;;;;;5.57;3.20;;;13.30;99.90;;;;;;5035692;28;20194;-42